sensor_id;sensor_type;location;lat;lon;timestamp;P1;durP1;ratioP1;P2;durP2;ratioP2
18194;SDS011;9223;50.988;3.162;2023-05-16T00:02:40;7.75;;;1.13;;
18194;SDS011;9223;50.988;3.162;2023-05-16T00:08:45;4.50;;;1.30;;
18194;SDS011;9223;50.988;3.162;2023-05-16T00:14:49;9.05;;;1.88;;
18194;SDS011;9223;50.988;3.162;2023-05-16T00:20:53;8.75;;;1.73;;
18194;SDS011;9223;50.988;3.162;2023-05-16T00:26:58;6.60;;;1.40;;
18194;SDS011;9223;50.988;3.162;2023-05-16T00:33:02;7.95;;;1.52;;
18194;SDS011;9223;50.988;3.162;2023-05-16T00:39:05;8.10;;;1.65;;
18194;SDS011;9223;50.988;3.162;2023-05-16T00:45:13;6.88;;;1.77;;
18194;SDS011;9223;50.988;3.162;2023-05-16T00:51:16;6.30;;;1.60;;
18194;SDS011;9223;50.988;3.162;2023-05-16T00:57:20;5.15;;;1.50;;
18194;SDS011;9223;50.988;3.162;2023-05-16T01:03:26;7.20;;;1.40;;
18194;SDS011;9223;50.988;3.162;2023-05-16T01:09:30;5.95;;;1.40;;
18194;SDS011;9223;50.988;3.162;2023-05-16T01:15:34;6.70;;;1.52;;
18194;SDS011;9223;50.988;3.162;2023-05-16T01:21:47;5.97;;;1.35;;
18194;SDS011;9223;50.988;3.162;2023-05-16T01:27:52;9.55;;;1.90;;
18194;SDS011;9223;50.988;3.162;2023-05-16T01:33:57;7.60;;;1.50;;
18194;SDS011;9223;50.988;3.162;2023-05-16T01:40:03;8.52;;;1.60;;
18194;SDS011;9223;50.988;3.162;2023-05-16T01:46:13;12.77;;;1.67;;
18194;SDS011;9223;50.988;3.162;2023-05-16T01:52:18;6.72;;;1.95;;
18194;SDS011;9223;50.988;3.162;2023-05-16T01:58:22;7.43;;;2.08;;
18194;SDS011;9223;50.988;3.162;2023-05-16T02:04:28;4.68;;;1.70;;
18194;SDS011;9223;50.988;3.162;2023-05-16T02:10:34;4.50;;;1.65;;
18194;SDS011;9223;50.988;3.162;2023-05-16T02:16:38;9.93;;;2.38;;
18194;SDS011;9223;50.988;3.162;2023-05-16T02:22:42;3.20;;;1.27;;
18194;SDS011;9223;50.988;3.162;2023-05-16T02:28:48;6.15;;;1.70;;
18194;SDS011;9223;50.988;3.162;2023-05-16T02:34:51;7.05;;;1.60;;
18194;SDS011;9223;50.988;3.162;2023-05-16T02:40:56;7.00;;;1.48;;
18194;SDS011;9223;50.988;3.162;2023-05-16T02:46:59;6.97;;;1.88;;
18194;SDS011;9223;50.988;3.162;2023-05-16T02:53:03;6.45;;;1.60;;
18194;SDS011;9223;50.988;3.162;2023-05-16T02:59:09;4.47;;;1.48;;
18194;SDS011;9223;50.988;3.162;2023-05-16T03:05:13;7.15;;;1.70;;
18194;SDS011;9223;50.988;3.162;2023-05-16T03:11:17;4.70;;;1.50;;
18194;SDS011;9223;50.988;3.162;2023-05-16T03:17:23;5.70;;;2.00;;
18194;SDS011;9223;50.988;3.162;2023-05-16T03:23:27;6.50;;;1.70;;
18194;SDS011;9223;50.988;3.162;2023-05-16T03:29:31;5.32;;;1.40;;
18194;SDS011;9223;50.988;3.162;2023-05-16T03:35:36;3.83;;;1.50;;
18194;SDS011;9223;50.988;3.162;2023-05-16T03:41:40;3.60;;;2.08;;
18194;SDS011;9223;50.988;3.162;2023-05-16T03:47:43;4.82;;;1.90;;
18194;SDS011;9223;50.988;3.162;2023-05-16T03:53:48;5.82;;;1.60;;
18194;SDS011;9223;50.988;3.162;2023-05-16T03:59:52;6.20;;;1.67;;
18194;SDS011;9223;50.988;3.162;2023-05-16T04:05:56;4.45;;;1.50;;
18194;SDS011;9223;50.988;3.162;2023-05-16T04:12:01;3.83;;;1.80;;
18194;SDS011;9223;50.988;3.162;2023-05-16T04:18:04;9.07;;;1.88;;
18194;SDS011;9223;50.988;3.162;2023-05-16T04:24:08;2.47;;;1.63;;
18194;SDS011;9223;50.988;3.162;2023-05-16T04:30:13;6.20;;;1.80;;
18194;SDS011;9223;50.988;3.162;2023-05-16T04:36:17;5.70;;;1.77;;
18194;SDS011;9223;50.988;3.162;2023-05-16T04:42:20;3.50;;;1.60;;
18194;SDS011;9223;50.988;3.162;2023-05-16T04:48:25;4.90;;;1.90;;
18194;SDS011;9223;50.988;3.162;2023-05-16T04:54:29;4.28;;;1.90;;
18194;SDS011;9223;50.988;3.162;2023-05-16T05:00:32;6.70;;;1.95;;
18194;SDS011;9223;50.988;3.162;2023-05-16T05:06:37;5.53;;;1.60;;
18194;SDS011;9223;50.988;3.162;2023-05-16T05:12:41;6.00;;;2.08;;
18194;SDS011;9223;50.988;3.162;2023-05-16T05:18:45;4.78;;;1.40;;
18194;SDS011;9223;50.988;3.162;2023-05-16T05:24:50;6.40;;;1.70;;
18194;SDS011;9223;50.988;3.162;2023-05-16T05:30:53;5.93;;;1.63;;
18194;SDS011;9223;50.988;3.162;2023-05-16T05:36:57;4.90;;;1.60;;
18194;SDS011;9223;50.988;3.162;2023-05-16T05:43:02;6.47;;;1.48;;
18194;SDS011;9223;50.988;3.162;2023-05-16T05:49:05;3.08;;;1.40;;
18194;SDS011;9223;50.988;3.162;2023-05-16T05:55:09;8.75;;;1.65;;
18194;SDS011;9223;50.988;3.162;2023-05-16T06:01:14;5.55;;;1.42;;
18194;SDS011;9223;50.988;3.162;2023-05-16T06:07:17;6.22;;;1.50;;
18194;SDS011;9223;50.988;3.162;2023-05-16T06:13:21;4.65;;;1.55;;
18194;SDS011;9223;50.988;3.162;2023-05-16T06:19:26;4.30;;;1.65;;
18194;SDS011;9223;50.988;3.162;2023-05-16T06:25:30;5.28;;;1.60;;
18194;SDS011;9223;50.988;3.162;2023-05-16T06:31:33;4.72;;;1.17;;
18194;SDS011;9223;50.988;3.162;2023-05-16T06:37:38;7.43;;;1.85;;
18194;SDS011;9223;50.988;3.162;2023-05-16T06:43:43;6.82;;;1.33;;
18194;SDS011;9223;50.988;3.162;2023-05-16T06:49:47;8.30;;;1.30;;
18194;SDS011;9223;50.988;3.162;2023-05-16T06:55:52;5.05;;;1.45;;
18194;SDS011;9223;50.988;3.162;2023-05-16T07:01:56;4.15;;;1.15;;
18194;SDS011;9223;50.988;3.162;2023-05-16T07:07:59;5.20;;;1.02;;
18194;SDS011;9223;50.988;3.162;2023-05-16T07:14:04;5.82;;;1.10;;
18194;SDS011;9223;50.988;3.162;2023-05-16T07:20:08;2.35;;;0.90;;
18194;SDS011;9223;50.988;3.162;2023-05-16T07:26:14;1.80;;;0.95;;
18194;SDS011;9223;50.988;3.162;2023-05-16T07:32:18;5.07;;;1.13;;
18194;SDS011;9223;50.988;3.162;2023-05-16T07:38:22;2.22;;;1.15;;
18194;SDS011;9223;50.988;3.162;2023-05-16T07:44:26;3.25;;;0.93;;
18194;SDS011;9223;50.988;3.162;2023-05-16T07:50:31;4.00;;;0.80;;
18194;SDS011;9223;50.988;3.162;2023-05-16T07:56:35;1.70;;;0.70;;
18194;SDS011;9223;50.988;3.162;2023-05-16T08:02:38;4.93;;;0.90;;
18194;SDS011;9223;50.988;3.162;2023-05-16T08:08:43;3.28;;;0.63;;
18194;SDS011;9223;50.988;3.162;2023-05-16T08:14:47;2.92;;;0.90;;
18194;SDS011;9223;50.988;3.162;2023-05-16T08:20:51;3.30;;;0.75;;
18194;SDS011;9223;50.988;3.162;2023-05-16T08:26:55;4.13;;;0.95;;
18194;SDS011;9223;50.988;3.162;2023-05-16T08:32:59;3.20;;;1.05;;
18194;SDS011;9223;50.988;3.162;2023-05-16T08:39:05;5.07;;;0.90;;
18194;SDS011;9223;50.988;3.162;2023-05-16T08:45:12;5.53;;;0.82;;
18194;SDS011;9223;50.988;3.162;2023-05-16T08:51:18;6.60;;;1.45;;
18194;SDS011;9223;50.988;3.162;2023-05-16T08:57:22;4.18;;;1.00;;
18194;SDS011;9223;50.988;3.162;2023-05-16T09:03:28;3.03;;;0.80;;
18194;SDS011;9223;50.988;3.162;2023-05-16T09:09:31;5.25;;;1.10;;
18194;SDS011;9223;50.988;3.162;2023-05-16T09:15:34;2.55;;;0.73;;
18194;SDS011;9223;50.988;3.162;2023-05-16T09:21:39;3.65;;;0.80;;
18194;SDS011;9223;50.988;3.162;2023-05-16T09:27:45;1.50;;;0.70;;
18194;SDS011;9223;50.988;3.162;2023-05-16T09:33:49;2.88;;;1.08;;
18194;SDS011;9223;50.988;3.162;2023-05-16T09:39:54;3.92;;;0.68;;
18194;SDS011;9223;50.988;3.162;2023-05-16T09:45:58;3.95;;;1.00;;
18194;SDS011;9223;50.988;3.162;2023-05-16T09:52:03;5.13;;;0.90;;
18194;SDS011;9223;50.988;3.162;2023-05-16T09:58:08;1.90;;;0.65;;
18194;SDS011;9223;50.988;3.162;2023-05-16T10:04:12;4.80;;;0.70;;
18194;SDS011;9223;50.988;3.162;2023-05-16T10:10:16;4.07;;;1.00;;
18194;SDS011;9223;50.988;3.162;2023-05-16T10:16:22;3.17;;;0.98;;
18194;SDS011;9223;50.988;3.162;2023-05-16T10:22:26;2.20;;;0.60;;
18194;SDS011;9223;50.988;3.162;2023-05-16T10:28:30;1.85;;;0.73;;
18194;SDS011;9223;50.988;3.162;2023-05-16T10:34:35;2.40;;;0.80;;
18194;SDS011;9223;50.988;3.162;2023-05-16T10:40:39;3.20;;;0.65;;
18194;SDS011;9223;50.988;3.162;2023-05-16T10:46:43;2.13;;;0.70;;
18194;SDS011;9223;50.988;3.162;2023-05-16T10:52:52;2.08;;;0.80;;
18194;SDS011;9223;50.988;3.162;2023-05-16T10:58:56;2.78;;;0.80;;
18194;SDS011;9223;50.988;3.162;2023-05-16T11:05:00;3.20;;;1.20;;
18194;SDS011;9223;50.988;3.162;2023-05-16T11:17:29;3.17;;;0.82;;
18194;SDS011;9223;50.988;3.162;2023-05-16T11:23:43;4.15;;;1.20;;
18194;SDS011;9223;50.988;3.162;2023-05-16T11:30:10;2.67;;;0.60;;
18194;SDS011;9223;50.988;3.162;2023-05-16T11:36:15;3.90;;;1.45;;
18194;SDS011;9223;50.988;3.162;2023-05-16T11:42:19;5.78;;;0.98;;
18194;SDS011;9223;50.988;3.162;2023-05-16T11:48:22;2.15;;;0.60;;
18194;SDS011;9223;50.988;3.162;2023-05-16T11:54:38;1.98;;;0.65;;
18194;SDS011;9223;50.988;3.162;2023-05-16T12:00:46;1.00;;;0.52;;
18194;SDS011;9223;50.988;3.162;2023-05-16T12:06:59;2.28;;;0.55;;
18194;SDS011;9223;50.988;3.162;2023-05-16T12:13:04;1.00;;;0.32;;
18194;SDS011;9223;50.988;3.162;2023-05-16T12:19:08;2.80;;;0.80;;
18194;SDS011;9223;50.988;3.162;2023-05-16T12:25:21;2.90;;;0.80;;
18194;SDS011;9223;50.988;3.162;2023-05-16T12:31:27;1.15;;;0.60;;
18194;SDS011;9223;50.988;3.162;2023-05-16T12:37:33;1.83;;;0.47;;
18194;SDS011;9223;50.988;3.162;2023-05-16T12:43:37;2.28;;;0.50;;
18194;SDS011;9223;50.988;3.162;2023-05-16T12:49:48;2.83;;;0.90;;
18194;SDS011;9223;50.988;3.162;2023-05-16T12:55:52;2.15;;;0.57;;
18194;SDS011;9223;50.988;3.162;2023-05-16T13:01:55;1.30;;;0.50;;
18194;SDS011;9223;50.988;3.162;2023-05-16T13:08:00;1.98;;;0.60;;
18194;SDS011;9223;50.988;3.162;2023-05-16T13:14:04;2.40;;;0.40;;
18194;SDS011;9223;50.988;3.162;2023-05-16T13:20:08;1.55;;;0.57;;
18194;SDS011;9223;50.988;3.162;2023-05-16T13:26:15;1.73;;;0.50;;
18194;SDS011;9223;50.988;3.162;2023-05-16T13:32:19;1.63;;;0.45;;
18194;SDS011;9223;50.988;3.162;2023-05-16T13:38:22;2.08;;;0.68;;
18194;SDS011;9223;50.988;3.162;2023-05-16T13:44:27;2.45;;;0.80;;
18194;SDS011;9223;50.988;3.162;2023-05-16T13:50:33;1.65;;;0.85;;
18194;SDS011;9223;50.988;3.162;2023-05-16T13:56:43;1.42;;;0.70;;
18194;SDS011;9223;50.988;3.162;2023-05-16T14:02:48;1.83;;;0.60;;
18194;SDS011;9223;50.988;3.162;2023-05-16T14:08:53;1.17;;;0.80;;
18194;SDS011;9223;50.988;3.162;2023-05-16T14:14:59;1.23;;;0.60;;
18194;SDS011;9223;50.988;3.162;2023-05-16T14:21:04;1.65;;;0.68;;
18194;SDS011;9223;50.988;3.162;2023-05-16T14:27:08;2.25;;;0.90;;
18194;SDS011;9223;50.988;3.162;2023-05-16T14:33:11;1.40;;;0.80;;
18194;SDS011;9223;50.988;3.162;2023-05-16T14:39:16;2.03;;;1.05;;
18194;SDS011;9223;50.988;3.162;2023-05-16T14:45:20;1.98;;;0.77;;
18194;SDS011;9223;50.988;3.162;2023-05-16T14:51:23;2.45;;;0.82;;
18194;SDS011;9223;50.988;3.162;2023-05-16T14:57:28;2.30;;;0.70;;
18194;SDS011;9223;50.988;3.162;2023-05-16T15:03:33;1.73;;;0.90;;
18194;SDS011;9223;50.988;3.162;2023-05-16T15:09:55;1.65;;;0.90;;
18194;SDS011;9223;50.988;3.162;2023-05-16T15:16:00;1.27;;;0.82;;
18194;SDS011;9223;50.988;3.162;2023-05-16T15:22:04;1.27;;;0.68;;
18194;SDS011;9223;50.988;3.162;2023-05-16T15:28:09;2.63;;;0.88;;
18194;SDS011;9223;50.988;3.162;2023-05-16T15:34:14;3.78;;;0.70;;
18194;SDS011;9223;50.988;3.162;2023-05-16T15:40:18;1.30;;;0.70;;
18194;SDS011;9223;50.988;3.162;2023-05-16T15:46:27;6.32;;;0.98;;
18194;SDS011;9223;50.988;3.162;2023-05-16T15:52:34;3.55;;;1.20;;
18194;SDS011;9223;50.988;3.162;2023-05-16T15:58:38;3.92;;;1.27;;
18194;SDS011;9223;50.988;3.162;2023-05-16T16:04:41;2.85;;;1.30;;
18194;SDS011;9223;50.988;3.162;2023-05-16T16:10:46;2.17;;;1.33;;
18194;SDS011;9223;50.988;3.162;2023-05-16T16:16:50;4.38;;;1.63;;
18194;SDS011;9223;50.988;3.162;2023-05-16T16:22:54;4.93;;;1.95;;
18194;SDS011;9223;50.988;3.162;2023-05-16T16:28:58;3.58;;;1.75;;
18194;SDS011;9223;50.988;3.162;2023-05-16T16:35:02;3.08;;;1.80;;
18194;SDS011;9223;50.988;3.162;2023-05-16T16:41:06;4.15;;;1.52;;
18194;SDS011;9223;50.988;3.162;2023-05-16T16:47:11;3.95;;;1.52;;
18194;SDS011;9223;50.988;3.162;2023-05-16T16:53:15;6.13;;;2.78;;
18194;SDS011;9223;50.988;3.162;2023-05-16T16:59:19;5.05;;;2.30;;
18194;SDS011;9223;50.988;3.162;2023-05-16T17:05:24;3.72;;;2.05;;
18194;SDS011;9223;50.988;3.162;2023-05-16T17:11:28;3.05;;;1.92;;
18194;SDS011;9223;50.988;3.162;2023-05-16T17:17:32;3.47;;;1.60;;
18194;SDS011;9223;50.988;3.162;2023-05-16T17:23:37;5.27;;;2.50;;
18194;SDS011;9223;50.988;3.162;2023-05-16T17:29:46;5.40;;;2.20;;
18194;SDS011;9223;50.988;3.162;2023-05-16T17:35:50;3.05;;;1.83;;
18194;SDS011;9223;50.988;3.162;2023-05-16T17:41:55;3.78;;;1.75;;
18194;SDS011;9223;50.988;3.162;2023-05-16T17:47:59;4.38;;;1.88;;
18194;SDS011;9223;50.988;3.162;2023-05-16T17:54:03;4.63;;;2.15;;
18194;SDS011;9223;50.988;3.162;2023-05-16T18:00:08;5.38;;;2.10;;
18194;SDS011;9223;50.988;3.162;2023-05-16T18:06:15;8.25;;;2.40;;
18194;SDS011;9223;50.988;3.162;2023-05-16T18:12:19;3.80;;;2.28;;
18194;SDS011;9223;50.988;3.162;2023-05-16T18:18:24;3.85;;;2.00;;
18194;SDS011;9223;50.988;3.162;2023-05-16T18:24:28;5.47;;;2.38;;
18194;SDS011;9223;50.988;3.162;2023-05-16T18:30:32;4.78;;;2.35;;
18194;SDS011;9223;50.988;3.162;2023-05-16T18:36:39;6.45;;;3.25;;
18194;SDS011;9223;50.988;3.162;2023-05-16T18:42:43;8.95;;;3.67;;
18194;SDS011;9223;50.988;3.162;2023-05-16T18:48:46;5.55;;;3.20;;
18194;SDS011;9223;50.988;3.162;2023-05-16T18:54:52;7.20;;;3.42;;
18194;SDS011;9223;50.988;3.162;2023-05-16T19:00:55;7.85;;;3.65;;
18194;SDS011;9223;50.988;3.162;2023-05-16T19:06:59;5.45;;;4.38;;
18194;SDS011;9223;50.988;3.162;2023-05-16T19:13:06;9.57;;;4.60;;
18194;SDS011;9223;50.988;3.162;2023-05-16T19:19:10;9.48;;;4.40;;
18194;SDS011;9223;50.988;3.162;2023-05-16T19:25:14;6.07;;;4.18;;
18194;SDS011;9223;50.988;3.162;2023-05-16T19:31:19;6.60;;;4.30;;
18194;SDS011;9223;50.988;3.162;2023-05-16T19:37:23;6.47;;;4.03;;
18194;SDS011;9223;50.988;3.162;2023-05-16T19:43:27;6.22;;;4.25;;
18194;SDS011;9223;50.988;3.162;2023-05-16T19:49:32;5.68;;;4.00;;
18194;SDS011;9223;50.988;3.162;2023-05-16T19:55:36;7.63;;;3.88;;
18194;SDS011;9223;50.988;3.162;2023-05-16T20:01:40;8.52;;;4.05;;
18194;SDS011;9223;50.988;3.162;2023-05-16T20:07:45;7.05;;;3.28;;
18194;SDS011;9223;50.988;3.162;2023-05-16T20:13:48;9.30;;;3.33;;
18194;SDS011;9223;50.988;3.162;2023-05-16T20:19:52;4.95;;;3.35;;
18194;SDS011;9223;50.988;3.162;2023-05-16T20:25:59;8.68;;;3.47;;
18194;SDS011;9223;50.988;3.162;2023-05-16T20:32:03;5.80;;;2.95;;
18194;SDS011;9223;50.988;3.162;2023-05-16T20:38:07;4.63;;;2.47;;
18194;SDS011;9223;50.988;3.162;2023-05-16T20:44:12;4.68;;;2.25;;
18194;SDS011;9223;50.988;3.162;2023-05-16T20:50:15;2.08;;;1.67;;
18194;SDS011;9223;50.988;3.162;2023-05-16T20:56:19;4.15;;;2.22;;
18194;SDS011;9223;50.988;3.162;2023-05-16T21:02:24;4.47;;;1.88;;
18194;SDS011;9223;50.988;3.162;2023-05-16T21:08:28;4.97;;;1.80;;
18194;SDS011;9223;50.988;3.162;2023-05-16T21:14:31;3.10;;;1.90;;
18194;SDS011;9223;50.988;3.162;2023-05-16T21:20:36;3.28;;;1.80;;
18194;SDS011;9223;50.988;3.162;2023-05-16T21:26:40;2.80;;;2.08;;
18194;SDS011;9223;50.988;3.162;2023-05-16T21:32:43;6.00;;;2.00;;
18194;SDS011;9223;50.988;3.162;2023-05-16T21:38:48;5.28;;;2.00;;
18194;SDS011;9223;50.988;3.162;2023-05-16T21:44:52;2.88;;;1.88;;
18194;SDS011;9223;50.988;3.162;2023-05-16T21:50:55;5.15;;;1.92;;
18194;SDS011;9223;50.988;3.162;2023-05-16T21:57:00;5.35;;;1.90;;
18194;SDS011;9223;50.988;3.162;2023-05-16T22:03:03;5.05;;;1.77;;
18194;SDS011;9223;50.988;3.162;2023-05-16T22:09:07;2.80;;;1.90;;
18194;SDS011;9223;50.988;3.162;2023-05-16T22:15:13;3.92;;;1.88;;
18194;SDS011;9223;50.988;3.162;2023-05-16T22:21:16;3.97;;;1.90;;
18194;SDS011;9223;50.988;3.162;2023-05-16T22:27:20;3.85;;;2.25;;
18194;SDS011;9223;50.988;3.162;2023-05-16T22:33:25;6.05;;;2.97;;
18194;SDS011;9223;50.988;3.162;2023-05-16T22:39:29;3.80;;;1.98;;
18194;SDS011;9223;50.988;3.162;2023-05-16T22:45:32;3.15;;;1.90;;
18194;SDS011;9223;50.988;3.162;2023-05-16T22:51:37;5.90;;;2.50;;
18194;SDS011;9223;50.988;3.162;2023-05-16T22:57:41;6.38;;;2.40;;
18194;SDS011;9223;50.988;3.162;2023-05-16T23:03:45;3.35;;;1.98;;
18194;SDS011;9223;50.988;3.162;2023-05-16T23:09:50;3.63;;;1.80;;
18194;SDS011;9223;50.988;3.162;2023-05-16T23:15:54;3.05;;;1.70;;
18194;SDS011;9223;50.988;3.162;2023-05-16T23:21:57;3.00;;;2.08;;
18194;SDS011;9223;50.988;3.162;2023-05-16T23:28:02;7.50;;;2.10;;
18194;SDS011;9223;50.988;3.162;2023-05-16T23:34:06;7.65;;;2.47;;
18194;SDS011;9223;50.988;3.162;2023-05-16T23:40:10;6.13;;;1.80;;
18194;SDS011;9223;50.988;3.162;2023-05-16T23:46:15;6.85;;;2.30;;
18194;SDS011;9223;50.988;3.162;2023-05-16T23:52:18;4.53;;;1.88;;
18194;SDS011;9223;50.988;3.162;2023-05-16T23:58:22;6.18;;;2.15;;
